sensor_id;sensor_type;location;lat;lon;timestamp;pressure;altitude;pressure_sealevel;temperature;humidity
37450;BME280;23309;52.582;13.406;2022-08-04T00:02:40;100948.88;;;32.61;32.20
37450;BME280;23309;52.582;13.406;2022-08-04T00:05:15;100939.16;;;32.53;32.30
37450;BME280;23309;52.582;13.406;2022-08-04T00:07:52;100947.44;;;32.53;31.99
37450;BME280;23309;52.582;13.406;2022-08-04T00:10:26;100948.81;;;32.51;32.10
37450;BME280;23309;52.582;13.406;2022-08-04T00:12:55;100943.28;;;32.46;32.39
37450;BME280;23309;52.582;13.406;2022-08-04T00:15:25;100948.56;;;32.47;32.11
37450;BME280;23309;52.582;13.406;2022-08-04T00:17:55;100933.34;;;32.40;32.19
37450;BME280;23309;52.582;13.406;2022-08-04T00:20:24;100942.75;;;32.49;32.43
37450;BME280;23309;52.582;13.406;2022-08-04T00:22:54;100937.75;;;32.46;32.10
37450;BME280;23309;52.582;13.406;2022-08-04T00:25:25;100939.13;;;32.43;32.06
37450;BME280;23309;52.582;13.406;2022-08-04T00:27:53;100936.09;;;32.45;32.21
37450;BME280;23309;52.582;13.406;2022-08-04T00:30:19;100934.72;;;32.42;32.31
37450;BME280;23309;52.582;13.406;2022-08-04T00:32:46;100934.13;;;32.40;32.50
37450;BME280;23309;52.582;13.406;2022-08-04T00:35:13;100937.47;;;32.42;32.28
37450;BME280;23309;52.582;13.406;2022-08-04T00:37:41;100934.72;;;32.37;32.65
37450;BME280;23309;52.582;13.406;2022-08-04T00:40:27;100929.44;;;32.41;32.42
37450;BME280;23309;52.582;13.406;2022-08-04T00:43:14;100951.03;;;32.44;32.25
37450;BME280;23309;52.582;13.406;2022-08-04T00:46:09;100935.56;;;32.43;32.48
37450;BME280;23309;52.582;13.406;2022-08-04T00:49:02;100934.72;;;32.37;32.25
37450;BME280;23309;52.582;13.406;2022-08-04T00:51:46;100933.59;;;32.33;32.03
37450;BME280;23309;52.582;13.406;2022-08-04T00:54:20;100942.66;;;32.23;32.07
37450;BME280;23309;52.582;13.406;2022-08-04T00:57:26;100942.41;;;32.30;31.92
37450;BME280;23309;52.582;13.406;2022-08-04T01:00:06;100932.16;;;32.21;31.68
37450;BME280;23309;52.582;13.406;2022-08-04T01:02:38;100927.16;;;32.13;32.05
37450;BME280;23309;52.582;13.406;2022-08-04T01:05:20;100917.47;;;32.15;32.00
37450;BME280;23309;52.582;13.406;2022-08-04T01:08:06;100926.88;;;32.19;32.24
37450;BME280;23309;52.582;13.406;2022-08-04T01:10:45;100930.72;;;32.13;32.36
37450;BME280;23309;52.582;13.406;2022-08-04T01:13:35;100935.44;;;32.17;32.46
37450;BME280;23309;52.582;13.406;2022-08-04T01:16:08;100931.78;;;31.97;32.57
37450;BME280;23309;52.582;13.406;2022-08-04T01:18:45;100923.53;;;32.07;32.29
37450;BME280;23309;52.582;13.406;2022-08-04T01:22:01;100937.34;;;32.12;32.33
37450;BME280;23309;52.582;13.406;2022-08-04T01:25:08;100922.13;;;32.04;32.54
37450;BME280;23309;52.582;13.406;2022-08-04T01:28:05;100930.41;;;31.99;32.56
37450;BME280;23309;52.582;13.406;2022-08-04T01:30:42;100928.97;;;31.82;32.74
37450;BME280;23309;52.582;13.406;2022-08-04T01:33:13;100913.19;;;31.77;32.70
37450;BME280;23309;52.582;13.406;2022-08-04T01:35:47;100924.25;;;31.77;32.20
37450;BME280;23309;52.582;13.406;2022-08-04T01:38:18;100919.22;;;31.74;32.31
37450;BME280;23309;52.582;13.406;2022-08-04T01:40:51;100923.59;;;31.70;32.24
37450;BME280;23309;52.582;13.406;2022-08-04T01:43:19;100931.63;;;31.72;32.48
37450;BME280;23309;52.582;13.406;2022-08-04T01:45:52;100928.84;;;31.67;32.62
37450;BME280;23309;52.582;13.406;2022-08-04T01:48:24;100922.16;;;31.58;32.64
37450;BME280;23309;52.582;13.406;2022-08-04T01:50:52;100930.72;;;31.56;32.65
37450;BME280;23309;52.582;13.406;2022-08-04T01:53:19;100933.72;;;31.50;33.06
37450;BME280;23309;52.582;13.406;2022-08-04T01:55:46;100921.00;;;31.44;33.05
37450;BME280;23309;52.582;13.406;2022-08-04T01:58:17;100945.31;;;31.47;33.54
37450;BME280;23309;52.582;13.406;2022-08-04T02:00:55;100938.69;;;31.48;33.56
37450;BME280;23309;52.582;13.406;2022-08-04T02:03:22;100934.78;;;31.44;33.75
37450;BME280;23309;52.582;13.406;2022-08-04T02:05:50;100937.81;;;31.42;33.70
37450;BME280;23309;52.582;13.406;2022-08-04T02:08:29;100935.31;;;31.41;33.33
37450;BME280;23309;52.582;13.406;2022-08-04T02:11:05;100930.03;;;31.34;33.58
37450;BME280;23309;52.582;13.406;2022-08-04T02:13:42;100926.47;;;31.34;33.47
37450;BME280;23309;52.582;13.406;2022-08-04T02:16:21;100924.25;;;31.36;33.19
37450;BME280;23309;52.582;13.406;2022-08-04T02:19:01;100925.88;;;31.32;33.74
37450;BME280;23309;52.582;13.406;2022-08-04T02:21:31;100913.06;;;31.16;33.89
37450;BME280;23309;52.582;13.406;2022-08-04T02:24:04;100919.97;;;31.18;33.70
37450;BME280;23309;52.582;13.406;2022-08-04T02:26:33;100919.94;;;31.13;33.50
37450;BME280;23309;52.582;13.406;2022-08-04T02:29:07;100926.03;;;31.20;33.09
37450;BME280;23309;52.582;13.406;2022-08-04T02:31:44;100914.69;;;31.12;33.29
37450;BME280;23309;52.582;13.406;2022-08-04T02:34:23;100904.69;;;31.01;33.17
37450;BME280;23309;52.582;13.406;2022-08-04T02:36:50;100915.16;;;31.04;33.09
37450;BME280;23309;52.582;13.406;2022-08-04T02:39:20;100883.03;;;30.83;33.36
37450;BME280;23309;52.582;13.406;2022-08-04T02:41:47;100908.47;;;30.95;33.61
37450;BME280;23309;52.582;13.406;2022-08-04T02:44:19;100900.19;;;30.95;33.50
37450;BME280;23309;52.582;13.406;2022-08-04T02:46:51;100905.72;;;30.95;33.51
37450;BME280;23309;52.582;13.406;2022-08-04T02:49:18;100904.84;;;30.89;33.54
37450;BME280;23309;52.582;13.406;2022-08-04T02:51:50;100908.72;;;30.93;34.11
37450;BME280;23309;52.582;13.406;2022-08-04T02:54:19;100897.63;;;30.83;33.58
37450;BME280;23309;52.582;13.406;2022-08-04T02:56:51;100906.72;;;30.79;34.02
37450;BME280;23309;52.582;13.406;2022-08-04T02:59:22;100907.78;;;30.78;33.86
37450;BME280;23309;52.582;13.406;2022-08-04T03:01:55;100909.19;;;30.80;33.73
37450;BME280;23309;52.582;13.406;2022-08-04T03:04:38;100901.72;;;30.76;33.91
37450;BME280;23309;52.582;13.406;2022-08-04T03:10:28;100915.19;;;30.72;34.05
37450;BME280;23309;52.582;13.406;2022-08-04T03:16:34;100917.50;;;30.59;34.42
37450;BME280;23309;52.582;13.406;2022-08-04T03:19:57;100916.31;;;30.50;34.15
37450;BME280;23309;52.582;13.406;2022-08-04T03:26:28;100915.97;;;30.41;34.51
37450;BME280;23309;52.582;13.406;2022-08-04T03:29:44;100915.97;;;30.41;34.46
37450;BME280;23309;52.582;13.406;2022-08-04T03:33:04;100913.72;;;30.38;34.48
37450;BME280;23309;52.582;13.406;2022-08-04T03:36:16;100898.44;;;30.26;34.54
37450;BME280;23309;52.582;13.406;2022-08-04T03:39:13;100897.81;;;30.19;34.69
37450;BME280;23309;52.582;13.406;2022-08-04T03:42:15;100916.91;;;30.25;34.92
37450;BME280;23309;52.582;13.406;2022-08-04T03:48:39;100914.94;;;30.21;34.86
37450;BME280;23309;52.582;13.406;2022-08-04T03:51:34;100914.13;;;30.25;34.57
37450;BME280;23309;52.582;13.406;2022-08-04T03:54:44;100905.88;;;30.25;34.63
37450;BME280;23309;52.582;13.406;2022-08-04T03:58:07;100910.22;;;30.21;34.60
37450;BME280;23309;52.582;13.406;2022-08-04T04:00:50;100910.72;;;30.13;34.82
37450;BME280;23309;52.582;13.406;2022-08-04T04:03:55;100906.91;;;30.19;34.50
37450;BME280;23309;52.582;13.406;2022-08-04T04:07:02;100906.13;;;30.24;34.48
37450;BME280;23309;52.582;13.406;2022-08-04T04:13:20;100908.56;;;30.20;34.80
37450;BME280;23309;52.582;13.406;2022-08-04T04:16:17;100908.13;;;30.28;34.40
37450;BME280;23309;52.582;13.406;2022-08-04T04:19:22;100909.31;;;30.37;34.58
37450;BME280;23309;52.582;13.406;2022-08-04T04:22:12;100898.53;;;30.36;34.11
37450;BME280;23309;52.582;13.406;2022-08-04T04:25:18;100914.81;;;30.64;33.71
37450;BME280;23309;52.582;13.406;2022-08-04T04:28:09;100917.16;;;30.77;33.63
37450;BME280;23309;52.582;13.406;2022-08-04T04:30:47;100912.31;;;30.89;33.36
37450;BME280;23309;52.582;13.406;2022-08-04T04:33:39;100910.53;;;31.09;33.04
37450;BME280;23309;52.582;13.406;2022-08-04T04:36:14;100911.97;;;31.17;32.37
37450;BME280;23309;52.582;13.406;2022-08-04T04:39:11;100930.66;;;31.46;32.23
37450;BME280;23309;52.582;13.406;2022-08-04T04:42:01;100903.41;;;31.60;31.89
37450;BME280;23309;52.582;13.406;2022-08-04T04:45:10;100891.09;;;31.77;31.79
37450;BME280;23309;52.582;13.406;2022-08-04T04:47:53;100922.41;;;32.08;31.24
37450;BME280;23309;52.582;13.406;2022-08-04T04:50:30;100919.44;;;32.25;30.96
37450;BME280;23309;52.582;13.406;2022-08-04T04:53:11;100925.63;;;32.52;30.39
37450;BME280;23309;52.582;13.406;2022-08-04T04:55:54;100916.22;;;32.73;30.12
37450;BME280;23309;52.582;13.406;2022-08-04T04:58:25;100908.50;;;32.85;30.27
37450;BME280;23309;52.582;13.406;2022-08-04T05:10:28;100925.41;;;34.07;28.59
37450;BME280;23309;52.582;13.406;2022-08-04T05:13:31;100911.13;;;34.33;28.29
37450;BME280;23309;52.582;13.406;2022-08-04T05:16:05;100912.78;;;34.39;28.02
37450;BME280;23309;52.582;13.406;2022-08-04T05:18:35;100904.31;;;34.59;28.11
37450;BME280;23309;52.582;13.406;2022-08-04T05:21:17;100927.91;;;34.95;27.46
37450;BME280;23309;52.582;13.406;2022-08-04T05:23:48;100921.06;;;35.16;27.48
37450;BME280;23309;52.582;13.406;2022-08-04T05:26:18;100929.69;;;35.43;26.67
37450;BME280;23309;52.582;13.406;2022-08-04T05:28:55;100923.53;;;35.70;26.23
37450;BME280;23309;52.582;13.406;2022-08-04T05:31:25;100914.59;;;35.78;26.00
37450;BME280;23309;52.582;13.406;2022-08-04T05:33:57;100915.09;;;36.03;25.34
37450;BME280;23309;52.582;13.406;2022-08-04T05:36:32;100923.72;;;36.25;25.55
37450;BME280;23309;52.582;13.406;2022-08-04T05:39:00;100935.91;;;36.48;25.51
37450;BME280;23309;52.582;13.406;2022-08-04T05:41:28;100933.38;;;36.70;24.79
37450;BME280;23309;52.582;13.406;2022-08-04T05:43:58;100934.47;;;36.87;24.63
37450;BME280;23309;52.582;13.406;2022-08-04T05:46:26;100939.38;;;37.09;24.26
37450;BME280;23309;52.582;13.406;2022-08-04T05:48:53;100930.16;;;37.27;23.83
37450;BME280;23309;52.582;13.406;2022-08-04T05:51:20;100934.94;;;37.40;23.77
37450;BME280;23309;52.582;13.406;2022-08-04T05:53:46;100937.88;;;37.62;23.23
37450;BME280;23309;52.582;13.406;2022-08-04T05:56:14;100934.16;;;37.80;23.31
37450;BME280;23309;52.582;13.406;2022-08-04T05:58:41;100936.25;;;38.02;23.00
37450;BME280;23309;52.582;13.406;2022-08-04T06:01:12;100938.47;;;38.27;22.73
37450;BME280;23309;52.582;13.406;2022-08-04T06:03:39;100915.91;;;38.37;22.47
37450;BME280;23309;52.582;13.406;2022-08-04T06:06:06;100922.16;;;38.69;22.39
37450;BME280;23309;52.582;13.406;2022-08-04T06:08:34;100928.78;;;38.95;22.07
37450;BME280;23309;52.582;13.406;2022-08-04T06:11:05;100936.34;;;39.25;21.81
37450;BME280;23309;52.582;13.406;2022-08-04T06:13:39;100923.53;;;39.55;21.35
37450;BME280;23309;52.582;13.406;2022-08-04T06:16:11;100931.69;;;39.73;20.80
37450;BME280;23309;52.582;13.406;2022-08-04T06:18:38;100918.13;;;39.97;21.05
37450;BME280;23309;52.582;13.406;2022-08-04T06:21:06;100927.09;;;40.16;20.64
37450;BME280;23309;52.582;13.406;2022-08-04T06:23:36;100932.38;;;40.35;20.28
37450;BME280;23309;52.582;13.406;2022-08-04T06:26:04;100935.22;;;40.69;19.95
37450;BME280;23309;52.582;13.406;2022-08-04T06:28:32;100934.06;;;41.04;19.59
37450;BME280;23309;52.582;13.406;2022-08-04T06:30:59;100941.56;;;41.29;19.07
37450;BME280;23309;52.582;13.406;2022-08-04T06:33:30;100939.88;;;41.53;18.95
37450;BME280;23309;52.582;13.406;2022-08-04T06:35:58;100933.97;;;41.84;18.87
37450;BME280;23309;52.582;13.406;2022-08-04T06:38:28;100947.88;;;42.09;18.38
37450;BME280;23309;52.582;13.406;2022-08-04T06:40:55;100950.06;;;42.33;17.74
37450;BME280;23309;52.582;13.406;2022-08-04T06:43:22;100943.69;;;42.44;17.54
37450;BME280;23309;52.582;13.406;2022-08-04T06:45:49;100941.63;;;42.53;17.79
37450;BME280;23309;52.582;13.406;2022-08-04T06:48:17;100947.41;;;42.57;17.31
37450;BME280;23309;52.582;13.406;2022-08-04T06:50:49;100942.13;;;42.76;17.30
37450;BME280;23309;52.582;13.406;2022-08-04T06:53:16;100937.25;;;42.85;17.47
37450;BME280;23309;52.582;13.406;2022-08-04T06:55:46;100936.69;;;43.12;17.23
37450;BME280;23309;52.582;13.406;2022-08-04T06:58:13;100943.19;;;43.36;16.59
37450;BME280;23309;52.582;13.406;2022-08-04T07:00:42;100936.91;;;43.40;16.72
37450;BME280;23309;52.582;13.406;2022-08-04T07:03:10;100946.97;;;43.53;16.60
37450;BME280;23309;52.582;13.406;2022-08-04T07:05:36;100940.56;;;43.76;16.42
37450;BME280;23309;52.582;13.406;2022-08-04T07:08:06;100938.81;;;43.96;16.41
37450;BME280;23309;52.582;13.406;2022-08-04T07:10:35;100934.47;;;44.10;15.97
37450;BME280;23309;52.582;13.406;2022-08-04T07:13:02;100941.53;;;44.28;15.92
37450;BME280;23309;52.582;13.406;2022-08-04T07:15:29;100935.13;;;44.43;15.59
37450;BME280;23309;52.582;13.406;2022-08-04T07:17:56;100945.44;;;44.51;15.96
37450;BME280;23309;52.582;13.406;2022-08-04T07:20:22;100926.50;;;44.76;15.75
37450;BME280;23309;52.582;13.406;2022-08-04T07:22:49;100926.06;;;44.89;15.62
37450;BME280;23309;52.582;13.406;2022-08-04T07:25:18;100932.59;;;45.05;15.10
37450;BME280;23309;52.582;13.406;2022-08-04T07:27:45;100926.84;;;45.29;15.19
37450;BME280;23309;52.582;13.406;2022-08-04T07:30:11;100929.50;;;45.38;15.23
37450;BME280;23309;52.582;13.406;2022-08-04T07:32:38;100928.22;;;45.51;15.00
37450;BME280;23309;52.582;13.406;2022-08-04T07:35:07;100927.69;;;45.61;14.47
37450;BME280;23309;52.582;13.406;2022-08-04T07:37:35;100929.50;;;45.84;14.65
37450;BME280;23309;52.582;13.406;2022-08-04T07:40:01;100929.97;;;46.02;14.49
37450;BME280;23309;52.582;13.406;2022-08-04T07:42:30;100923.66;;;45.93;14.47
37450;BME280;23309;52.582;13.406;2022-08-04T07:44:56;100930.72;;;46.18;13.78
37450;BME280;23309;52.582;13.406;2022-08-04T07:47:24;100925.19;;;46.21;14.29
37450;BME280;23309;52.582;13.406;2022-08-04T07:49:50;100926.53;;;46.27;14.11
37450;BME280;23309;52.582;13.406;2022-08-04T07:52:17;100920.13;;;46.30;14.04
37450;BME280;23309;52.582;13.406;2022-08-04T07:54:44;100917.34;;;46.49;13.78
37450;BME280;23309;52.582;13.406;2022-08-04T07:57:10;100924.72;;;46.73;13.60
37450;BME280;23309;52.582;13.406;2022-08-04T07:59:39;100930.31;;;46.88;13.52
37450;BME280;23309;52.582;13.406;2022-08-04T08:02:05;100922.53;;;47.04;13.51
37450;BME280;23309;52.582;13.406;2022-08-04T08:04:31;100910.63;;;47.14;13.51
37450;BME280;23309;52.582;13.406;2022-08-04T08:06:58;100911.78;;;47.32;12.99
37450;BME280;23309;52.582;13.406;2022-08-04T08:09:24;100915.16;;;47.41;13.00
37450;BME280;23309;52.582;13.406;2022-08-04T08:11:52;100916.91;;;47.46;12.90
37450;BME280;23309;52.582;13.406;2022-08-04T08:14:19;100910.72;;;47.40;13.14
37450;BME280;23309;52.582;13.406;2022-08-04T08:16:48;100908.09;;;47.51;13.17
37450;BME280;23309;52.582;13.406;2022-08-04T08:19:14;100911.63;;;47.67;13.43
37450;BME280;23309;52.582;13.406;2022-08-04T08:21:45;100912.97;;;47.76;13.14
37450;BME280;23309;52.582;13.406;2022-08-04T08:24:12;100902.00;;;47.75;12.76
37450;BME280;23309;52.582;13.406;2022-08-04T08:26:40;100895.88;;;47.69;12.75
37450;BME280;23309;52.582;13.406;2022-08-04T08:29:06;100897.06;;;47.68;12.53
37450;BME280;23309;52.582;13.406;2022-08-04T08:31:33;100893.38;;;47.90;12.48
37450;BME280;23309;52.582;13.406;2022-08-04T08:34:02;100905.09;;;48.15;12.26
37450;BME280;23309;52.582;13.406;2022-08-04T08:36:34;100905.19;;;48.18;12.23
37450;BME280;23309;52.582;13.406;2022-08-04T08:39:06;100902.47;;;48.29;11.94
37450;BME280;23309;52.582;13.406;2022-08-04T08:41:58;100893.84;;;48.48;12.35
37450;BME280;23309;52.582;13.406;2022-08-04T08:45:05;100889.75;;;48.45;12.62
37450;BME280;23309;52.582;13.406;2022-08-04T08:47:48;100895.16;;;48.54;11.96
37450;BME280;23309;52.582;13.406;2022-08-04T08:50:56;100896.25;;;48.49;11.77
37450;BME280;23309;52.582;13.406;2022-08-04T08:53:47;100893.44;;;48.49;11.88
37450;BME280;23309;52.582;13.406;2022-08-04T08:56:27;100890.88;;;48.67;11.54
37450;BME280;23309;52.582;13.406;2022-08-04T08:59:15;100893.97;;;48.88;11.71
37450;BME280;23309;52.582;13.406;2022-08-04T09:01:57;100892.31;;;48.87;11.69
37450;BME280;23309;52.582;13.406;2022-08-04T09:07:47;100884.25;;;48.89;11.97
37450;BME280;23309;52.582;13.406;2022-08-04T09:10:20;100883.47;;;48.92;11.95
37450;BME280;23309;52.582;13.406;2022-08-04T09:12:55;100889.50;;;48.87;12.02
37450;BME280;23309;52.582;13.406;2022-08-04T09:15:33;100880.69;;;48.96;11.77
37450;BME280;23309;52.582;13.406;2022-08-04T09:18:06;100885.28;;;49.11;11.78
37450;BME280;23309;52.582;13.406;2022-08-04T09:20:46;100895.16;;;49.20;11.65
37450;BME280;23309;52.582;13.406;2022-08-04T09:23:23;100899.22;;;49.23;11.19
37450;BME280;23309;52.582;13.406;2022-08-04T09:26:00;100890.44;;;49.38;11.34
37450;BME280;23309;52.582;13.406;2022-08-04T09:28:41;100897.91;;;49.57;10.87
37450;BME280;23309;52.582;13.406;2022-08-04T09:31:12;100883.03;;;49.74;10.83
37450;BME280;23309;52.582;13.406;2022-08-04T09:33:58;100888.09;;;49.94;11.00
37450;BME280;23309;52.582;13.406;2022-08-04T09:36:34;100873.44;;;49.89;11.16
37450;BME280;23309;52.582;13.406;2022-08-04T09:39:10;100885.63;;;49.89;10.65
37450;BME280;23309;52.582;13.406;2022-08-04T09:41:54;100885.00;;;49.63;11.31
37450;BME280;23309;52.582;13.406;2022-08-04T09:44:33;100878.03;;;49.53;10.94
37450;BME280;23309;52.582;13.406;2022-08-04T09:47:12;100875.66;;;49.62;10.80
37450;BME280;23309;52.582;13.406;2022-08-04T09:49:45;100878.44;;;49.55;10.81
37450;BME280;23309;52.582;13.406;2022-08-04T09:52:31;100884.66;;;49.75;11.16
37450;BME280;23309;52.582;13.406;2022-08-04T09:55:16;100874.97;;;49.79;11.25
37450;BME280;23309;52.582;13.406;2022-08-04T09:57:52;100875.88;;;49.90;11.09
37450;BME280;23309;52.582;13.406;2022-08-04T10:00:20;100871.47;;;49.96;10.68
37450;BME280;23309;52.582;13.406;2022-08-04T10:02:52;100884.47;;;50.04;11.16
37450;BME280;23309;52.582;13.406;2022-08-04T10:05:22;100865.81;;;50.03;11.13
37450;BME280;23309;52.582;13.406;2022-08-04T10:08:14;100870.78;;;50.17;10.78
37450;BME280;23309;52.582;13.406;2022-08-04T10:10:59;100861.84;;;50.18;11.03
37450;BME280;23309;52.582;13.406;2022-08-04T10:13:46;100858.19;;;50.18;10.83
37450;BME280;23309;52.582;13.406;2022-08-04T10:16:29;100853.59;;;49.96;10.94
37450;BME280;23309;52.582;13.406;2022-08-04T10:19:06;100855.22;;;49.93;10.73
37450;BME280;23309;52.582;13.406;2022-08-04T10:21:49;100850.69;;;49.89;10.79
37450;BME280;23309;52.582;13.406;2022-08-04T10:24:31;100855.13;;;49.86;10.55
37450;BME280;23309;52.582;13.406;2022-08-04T10:27:10;100843.75;;;49.83;10.48
37450;BME280;23309;52.582;13.406;2022-08-04T10:29:42;100855.09;;;49.83;10.50
37450;BME280;23309;52.582;13.406;2022-08-04T10:32:16;100854.44;;;49.96;10.56
37450;BME280;23309;52.582;13.406;2022-08-04T10:35:00;100842.31;;;50.13;10.21
37450;BME280;23309;52.582;13.406;2022-08-04T10:37:39;100850.88;;;50.17;10.27
37450;BME280;23309;52.582;13.406;2022-08-04T10:40:13;100841.97;;;50.18;10.14
37450;BME280;23309;52.582;13.406;2022-08-04T10:42:55;100840.63;;;50.02;10.51
37450;BME280;23309;52.582;13.406;2022-08-04T10:45:28;100848.69;;;49.89;10.88
37450;BME280;23309;52.582;13.406;2022-08-04T10:48:04;100833.72;;;49.96;10.61
37450;BME280;23309;52.582;13.406;2022-08-04T10:50:35;100837.00;;;50.01;11.07
37450;BME280;23309;52.582;13.406;2022-08-04T10:53:08;100832.59;;;50.18;10.78
37450;BME280;23309;52.582;13.406;2022-08-04T10:55:43;100837.59;;;50.38;10.35
37450;BME280;23309;52.582;13.406;2022-08-04T10:58:19;100834.31;;;50.33;10.03
37450;BME280;23309;52.582;13.406;2022-08-04T11:00:47;100830.69;;;50.39;10.19
37450;BME280;23309;52.582;13.406;2022-08-04T11:03:19;100824.94;;;50.29;10.13
37450;BME280;23309;52.582;13.406;2022-08-04T11:05:49;100825.38;;;50.31;10.37
37450;BME280;23309;52.582;13.406;2022-08-04T11:08:22;100825.44;;;50.48;10.63
37450;BME280;23309;52.582;13.406;2022-08-04T11:10:58;100818.19;;;50.65;10.57
37450;BME280;23309;52.582;13.406;2022-08-04T11:13:34;100828.72;;;50.54;10.41
37450;BME280;23309;52.582;13.406;2022-08-04T11:16:08;100823.38;;;50.42;9.83
37450;BME280;23309;52.582;13.406;2022-08-04T11:18:46;100817.34;;;50.54;10.12
37450;BME280;23309;52.582;13.406;2022-08-04T11:21:19;100808.75;;;50.43;10.04
37450;BME280;23309;52.582;13.406;2022-08-04T11:23:52;100806.72;;;50.33;9.90
37450;BME280;23309;52.582;13.406;2022-08-04T11:26:29;100806.66;;;50.26;10.12
37450;BME280;23309;52.582;13.406;2022-08-04T11:29:08;100806.75;;;50.51;10.14
37450;BME280;23309;52.582;13.406;2022-08-04T11:31:42;100794.25;;;50.66;9.86
37450;BME280;23309;52.582;13.406;2022-08-04T11:34:18;100793.44;;;50.86;9.87
37450;BME280;23309;52.582;13.406;2022-08-04T11:36:50;100789.81;;;51.00;9.95
37450;BME280;23309;52.582;13.406;2022-08-04T11:39:25;100783.72;;;51.01;10.14
37450;BME280;23309;52.582;13.406;2022-08-04T11:41:57;100795.91;;;51.09;9.54
37450;BME280;23309;52.582;13.406;2022-08-04T11:44:33;100798.75;;;50.98;9.42
37450;BME280;23309;52.582;13.406;2022-08-04T11:47:08;100795.09;;;50.87;9.25
37450;BME280;23309;52.582;13.406;2022-08-04T11:49:42;100791.78;;;50.71;9.61
37450;BME280;23309;52.582;13.406;2022-08-04T11:52:13;100784.00;;;50.51;9.93
37450;BME280;23309;52.582;13.406;2022-08-04T11:54:42;100794.56;;;50.50;9.82
37450;BME280;23309;52.582;13.406;2022-08-04T11:57:09;100792.59;;;50.54;9.72
37450;BME280;23309;52.582;13.406;2022-08-04T11:59:40;100796.53;;;50.29;10.41
37450;BME280;23309;52.582;13.406;2022-08-04T12:02:40;100794.78;;;50.03;10.50
37450;BME280;23309;52.582;13.406;2022-08-04T12:05:11;100791.13;;;50.03;10.27
37450;BME280;23309;52.582;13.406;2022-08-04T12:08:04;100787.53;;;50.16;9.95
37450;BME280;23309;52.582;13.406;2022-08-04T12:10:44;100789.09;;;50.07;9.94
37450;BME280;23309;52.582;13.406;2022-08-04T12:13:27;100783.88;;;50.19;10.33
37450;BME280;23309;52.582;13.406;2022-08-04T12:16:04;100776.22;;;50.23;10.31
37450;BME280;23309;52.582;13.406;2022-08-04T12:18:38;100776.53;;;50.11;9.63
37450;BME280;23309;52.582;13.406;2022-08-04T12:21:24;100769.19;;;50.00;9.92
37450;BME280;23309;52.582;13.406;2022-08-04T12:23:57;100776.06;;;49.95;9.97
37450;BME280;23309;52.582;13.406;2022-08-04T12:26:29;100776.94;;;50.03;10.01
37450;BME280;23309;52.582;13.406;2022-08-04T12:29:00;100761.59;;;50.25;9.63
37450;BME280;23309;52.582;13.406;2022-08-04T12:31:39;100759.56;;;50.29;9.78
37450;BME280;23309;52.582;13.406;2022-08-04T12:34:11;100757.94;;;50.21;9.49
37450;BME280;23309;52.582;13.406;2022-08-04T12:36:49;100770.88;;;50.15;9.48
37450;BME280;23309;52.582;13.406;2022-08-04T12:39:19;100771.34;;;50.24;9.66
37450;BME280;23309;52.582;13.406;2022-08-04T12:41:56;100755.09;;;50.21;9.41
37450;BME280;23309;52.582;13.406;2022-08-04T12:44:24;100765.25;;;50.22;9.48
37450;BME280;23309;52.582;13.406;2022-08-04T12:46:59;100757.03;;;50.10;9.64
37450;BME280;23309;52.582;13.406;2022-08-04T12:49:28;100760.72;;;50.10;9.82
37450;BME280;23309;52.582;13.406;2022-08-04T12:51:56;100764.34;;;50.07;9.97
37450;BME280;23309;52.582;13.406;2022-08-04T12:54:25;100741.22;;;50.05;9.64
37450;BME280;23309;52.582;13.406;2022-08-04T12:56:56;100744.06;;;50.16;9.66
37450;BME280;23309;52.582;13.406;2022-08-04T12:59:23;100749.81;;;50.23;10.07
37450;BME280;23309;52.582;13.406;2022-08-04T13:01:50;100749.34;;;50.17;9.67
37450;BME280;23309;52.582;13.406;2022-08-04T13:04:23;100737.94;;;50.03;9.84
37450;BME280;23309;52.582;13.406;2022-08-04T13:06:59;100744.31;;;49.86;9.75
37450;BME280;23309;52.582;13.406;2022-08-04T13:09:32;100730.38;;;49.57;9.90
37450;BME280;23309;52.582;13.406;2022-08-04T13:12:03;100748.13;;;49.43;9.99
37450;BME280;23309;52.582;13.406;2022-08-04T13:14:34;100747.59;;;49.24;9.80
37450;BME280;23309;52.582;13.406;2022-08-04T13:17:02;100730.84;;;49.12;10.09
37450;BME280;23309;52.582;13.406;2022-08-04T13:19:32;100725.16;;;49.12;9.87
37450;BME280;23309;52.582;13.406;2022-08-04T13:21:59;100734.91;;;49.11;9.65
37450;BME280;23309;52.582;13.406;2022-08-04T13:24:27;100721.00;;;48.99;9.92
37450;BME280;23309;52.582;13.406;2022-08-04T13:26:57;100709.31;;;49.04;9.70
37450;BME280;23309;52.582;13.406;2022-08-04T13:29:33;100705.69;;;49.07;10.04
37450;BME280;23309;52.582;13.406;2022-08-04T13:32:00;100723.06;;;48.98;9.92
37450;BME280;23309;52.582;13.406;2022-08-04T13:34:32;100720.66;;;49.04;10.24
37450;BME280;23309;52.582;13.406;2022-08-04T13:36:59;100721.53;;;49.15;9.75
37450;BME280;23309;52.582;13.406;2022-08-04T13:39:28;100715.88;;;49.15;9.59
37450;BME280;23309;52.582;13.406;2022-08-04T13:41:59;100706.19;;;49.19;9.66
37450;BME280;23309;52.582;13.406;2022-08-04T13:44:31;100700.91;;;49.18;9.74
37450;BME280;23309;52.582;13.406;2022-08-04T13:47:02;100705.09;;;49.31;9.39
37450;BME280;23309;52.582;13.406;2022-08-04T13:49:32;100708.31;;;49.33;9.45
37450;BME280;23309;52.582;13.406;2022-08-04T13:52:01;100700.50;;;49.19;9.64
37450;BME280;23309;52.582;13.406;2022-08-04T13:54:38;100700.44;;;49.09;9.48
37450;BME280;23309;52.582;13.406;2022-08-04T13:57:10;100694.69;;;49.02;9.21